createdAt,value
2023-03-15T00:01:51.241Z,100261.09
2023-03-15T00:04:20.371Z,100255.19
2023-03-15T00:06:47.686Z,100264.56
2023-03-15T00:09:14.736Z,100252.97
2023-03-15T00:11:41.777Z,100274.13
2023-03-15T00:14:08.940Z,100279.00
2023-03-15T00:16:36.408Z,100265.56
2023-03-15T00:19:03.520Z,100280.63
2023-03-15T00:21:30.492Z,100288.97
2023-03-15T00:23:57.636Z,100289.78
2023-03-15T00:26:24.570Z,100292.84
2023-03-15T00:28:51.702Z,100293.88
2023-03-15T00:31:24.909Z,100304.03
2023-03-15T00:33:55.775Z,100303.84
2023-03-15T00:36:25.700Z,100315.25
2023-03-15T00:38:56.175Z,100315.66
2023-03-15T00:41:24.376Z,100317.69
2023-03-15T00:43:52.052Z,100331.13
2023-03-15T00:46:20.467Z,100321.16
2023-03-15T00:48:52.021Z,100334.38
2023-03-15T00:51:22.838Z,100338.03
2023-03-15T00:53:52.126Z,100329.69
2023-03-15T00:56:25.467Z,100340.88
2023-03-15T00:58:53.018Z,100348.00
2023-03-15T01:01:24.333Z,100344.56
2023-03-15T01:03:51.657Z,100344.34
2023-03-15T01:06:23.249Z,100360.44
2023-03-15T01:08:51.438Z,100349.03
2023-03-15T01:11:24.182Z,100356.78
2023-03-15T01:13:54.856Z,100351.06
2023-03-15T01:16:23.184Z,100364.09
2023-03-15T01:18:53.254Z,100366.34
2023-03-15T01:21:22.124Z,100364.91
2023-03-15T01:23:49.981Z,100372.84
2023-03-15T01:26:17.886Z,100373.44
2023-03-15T01:28:45.537Z,100382.22
2023-03-15T01:31:20.409Z,100385.66
2023-03-15T01:33:47.903Z,100390.72
2023-03-15T01:36:15.301Z,100384.41
2023-03-15T01:38:42.507Z,100386.44
2023-03-15T01:41:12.866Z,100388.69
2023-03-15T01:43:46.994Z,100378.91
2023-03-15T01:46:20.081Z,100398.22
2023-03-15T01:49:08.138Z,100406.16
2023-03-15T01:51:46.142Z,100412.25
2023-03-15T01:54:31.198Z,100391.28
2023-03-15T01:57:07.114Z,100410.59
2023-03-15T01:59:41.727Z,100407.94
2023-03-15T02:02:09.371Z,100398.78
2023-03-15T02:04:46.548Z,100406.69
2023-03-15T02:07:18.665Z,100413.19
2023-03-15T02:10:14.007Z,100405.81
2023-03-15T02:12:48.275Z,100416.78
2023-03-15T02:15:16.033Z,100422.69
2023-03-15T02:17:46.458Z,100416.34
2023-03-15T02:20:27.250Z,100430.97
2023-03-15T02:22:56.305Z,100423.81
2023-03-15T02:25:44.439Z,100428.69
2023-03-15T02:28:15.152Z,100433.94
2023-03-15T02:30:44.325Z,100438.41
2023-03-15T02:33:27.693Z,100446.28
2023-03-15T02:35:56.879Z,100438.75
2023-03-15T02:38:23.860Z,100441.16
2023-03-15T02:40:53.292Z,100431.56
2023-03-15T02:43:25.547Z,100457.00
2023-03-15T02:45:53.919Z,100453.94
2023-03-15T02:48:21.409Z,100463.88
2023-03-15T02:50:48.361Z,100465.03
2023-03-15T02:53:15.483Z,100469.94
2023-03-15T02:55:42.405Z,100468.31
2023-03-15T02:58:09.604Z,100466.25
2023-03-15T03:00:36.748Z,100467.44
2023-03-15T03:03:03.815Z,100479.44
2023-03-15T03:05:32.496Z,100475.56
2023-03-15T03:07:59.467Z,100485.69
2023-03-15T03:10:26.615Z,100495.03
2023-03-15T03:12:57.529Z,100492.78
2023-03-15T03:15:31.160Z,100494.59
2023-03-15T03:17:58.155Z,100491.16
2023-03-15T03:20:25.409Z,100505.78
2023-03-15T03:22:55.745Z,100510.25
2023-03-15T03:25:27.507Z,100510.25
2023-03-15T03:27:57.190Z,100503.34
2023-03-15T03:30:25.810Z,100512.91
2023-03-15T03:32:53.047Z,100519.00
2023-03-15T03:35:20.968Z,100513.91
2023-03-15T03:37:48.027Z,100527.72
2023-03-15T03:40:19.555Z,100524.53
2023-03-15T03:42:46.625Z,100534.91
2023-03-15T03:45:14.110Z,100525.41
2023-03-15T03:47:45.206Z,100521.75
2023-03-15T03:50:12.262Z,100521.34
2023-03-15T03:52:39.892Z,100529.56
2023-03-15T03:55:15.604Z,100534.28
2023-03-15T03:57:44.126Z,100536.97
2023-03-15T04:00:18.785Z,100542.28
2023-03-15T04:02:46.291Z,100539.84
2023-03-15T04:05:15.510Z,100545.81
2023-03-15T04:07:43.205Z,100546.44
2023-03-15T04:10:14.726Z,100549.25
2023-03-15T04:12:44.681Z,100547.81
2023-03-15T04:15:12.867Z,100549.22
2023-03-15T04:17:42.389Z,100545.72
2023-03-15T04:20:12.261Z,100566.66
2023-03-15T04:22:49.440Z,100570.31
2023-03-15T04:25:35.850Z,100576.53
2023-03-15T04:28:25.465Z,100576.13
2023-03-15T04:31:10.600Z,100575.25
2023-03-15T04:33:56.737Z,100581.97
2023-03-15T04:36:46.813Z,100573.38
2023-03-15T04:39:31.925Z,100579.28
2023-03-15T04:42:26.628Z,100583.50
2023-03-15T04:45:17.998Z,100589.97
2023-03-15T04:48:07.416Z,100579.34
2023-03-15T04:50:34.390Z,100579.34
2023-03-15T04:53:24.029Z,100593.56
2023-03-15T04:56:04.949Z,100589.22
2023-03-15T04:58:48.731Z,100593.69
2023-03-15T05:01:31.880Z,100615.00
2023-03-15T05:04:15.273Z,100609.28
2023-03-15T05:07:02.518Z,100610.63
2023-03-15T05:09:52.619Z,100626.66
2023-03-15T05:12:38.235Z,100622.56
2023-03-15T05:15:41.023Z,100621.28
2023-03-15T05:18:33.663Z,100627.13
2023-03-15T05:21:19.055Z,100632.78
2023-03-15T05:24:00.840Z,100646.53
2023-03-15T05:26:34.870Z,100666.91
2023-03-15T05:29:18.282Z,100657.91
2023-03-15T05:31:58.854Z,100665.66
2023-03-15T05:34:54.601Z,100669.28
2023-03-15T05:37:45.201Z,100665.00
2023-03-15T05:40:30.168Z,100677.38
2023-03-15T05:43:14.978Z,100677.03
2023-03-15T05:46:09.616Z,100682.56
2023-03-15T05:48:54.436Z,100684.66
2023-03-15T05:51:56.704Z,100687.19
2023-03-15T05:54:34.488Z,100692.56
2023-03-15T05:57:20.476Z,100701.38
2023-03-15T05:59:57.718Z,100703.72
2023-03-15T06:02:44.301Z,100708.44
2023-03-15T06:05:29.865Z,100711.78
2023-03-15T06:08:01.245Z,100713.47
2023-03-15T06:10:28.347Z,100702.72
2023-03-15T06:12:57.388Z,100724.38
2023-03-15T06:15:24.750Z,100721.16
2023-03-15T06:17:53.442Z,100728.78
2023-03-15T06:20:20.707Z,100739.59
2023-03-15T06:22:48.243Z,100741.09
2023-03-15T06:25:26.906Z,100748.56
2023-03-15T06:27:53.873Z,100756.41
2023-03-15T06:30:21.161Z,100748.97
2023-03-15T06:32:51.896Z,100753.16
2023-03-15T06:35:19.583Z,100765.41
2023-03-15T06:37:47.269Z,100767.09
2023-03-15T06:40:16.123Z,100767.16
2023-03-15T06:42:44.627Z,100787.09
2023-03-15T06:45:13.628Z,100771.84
2023-03-15T06:47:41.036Z,100785.53
2023-03-15T06:50:09.422Z,100786.97
2023-03-15T06:52:37.020Z,100792.66
2023-03-15T06:55:05.399Z,100790.19
2023-03-15T06:57:32.380Z,100795.25
2023-03-15T06:59:59.251Z,100796.06
2023-03-15T07:02:26.788Z,100804.19
2023-03-15T07:04:54.030Z,100804.63
2023-03-15T07:07:21.186Z,100796.50
2023-03-15T07:09:48.386Z,100807.31
2023-03-15T07:12:15.505Z,100811.22
2023-03-15T07:14:42.580Z,100799.63
2023-03-15T07:17:09.710Z,100801.53
2023-03-15T07:19:41.375Z,100809.13
2023-03-15T07:22:13.755Z,100801.38
2023-03-15T07:24:41.010Z,100819.38
2023-03-15T07:27:14.473Z,100811.66
2023-03-15T07:29:42.476Z,100819.09
2023-03-15T07:32:09.661Z,100809.59
2023-03-15T07:34:36.780Z,100798.47
2023-03-15T07:37:03.890Z,100816.75
2023-03-15T07:39:32.559Z,100827.78
2023-03-15T07:41:59.811Z,100811.50
2023-03-15T07:44:39.539Z,100817.03
2023-03-15T07:47:06.832Z,100827.44
2023-03-15T07:49:34.632Z,100821.72
2023-03-15T07:52:01.661Z,100821.94
2023-03-15T07:54:31.753Z,100833.38
2023-03-15T07:56:58.740Z,100838.28
2023-03-15T07:59:26.113Z,100831.13
2023-03-15T08:01:53.022Z,100838.47
2023-03-15T08:04:21.250Z,100848.94
2023-03-15T08:06:48.222Z,100837.72
2023-03-15T08:09:15.442Z,100847.31
2023-03-15T08:11:43.510Z,100847.72
2023-03-15T08:14:11.861Z,100857.31
2023-03-15T08:16:38.935Z,100857.31
2023-03-15T08:19:06.049Z,100861.59
2023-03-15T08:21:33.713Z,100856.47
2023-03-15T08:24:01.475Z,100862.59
2023-03-15T08:26:28.512Z,100861.78
2023-03-15T08:28:55.764Z,100858.06
2023-03-15T08:31:23.288Z,100865.19
2023-03-15T08:33:50.665Z,100860.09
2023-03-15T08:36:17.921Z,100871.94
2023-03-15T08:38:44.890Z,100877.84
2023-03-15T08:41:11.758Z,100876.00
2023-03-15T08:43:38.692Z,100875.19
2023-03-15T08:46:05.747Z,100882.72
2023-03-15T08:48:32.748Z,100887.00
2023-03-15T08:51:07.895Z,100895.81
2023-03-15T08:53:35.435Z,100897.63
2023-03-15T08:56:02.415Z,100900.50
2023-03-15T08:58:29.489Z,100896.00
2023-03-15T09:00:57.356Z,100905.19
2023-03-15T09:03:24.494Z,100905.19
2023-03-15T09:05:57.577Z,100913.16
2023-03-15T09:08:26.155Z,100920.31
2023-03-15T09:10:58.133Z,100923.78
2023-03-15T09:13:25.807Z,100929.75
2023-03-15T09:15:54.496Z,100929.53
2023-03-15T09:18:22.105Z,100939.56
2023-03-15T09:20:49.403Z,100928.53
2023-03-15T09:23:16.541Z,100933.25
2023-03-15T09:25:43.536Z,100938.16
2023-03-15T09:28:12.116Z,100943.84
2023-03-15T09:30:41.295Z,100950.75
2023-03-15T09:33:09.464Z,100954.09
2023-03-15T09:35:36.698Z,100941.22
2023-03-15T09:38:03.992Z,100953.09
2023-03-15T09:40:35.585Z,100968.72
2023-03-15T09:43:14.143Z,100966.59
2023-03-15T09:45:41.223Z,100971.59
2023-03-15T09:48:26.176Z,100958.41
2023-03-15T09:51:03.644Z,100966.72
2023-03-15T09:53:43.428Z,100973.72
2023-03-15T09:56:37.079Z,100976.63
2023-03-15T09:59:05.620Z,100982.75
2023-03-15T10:01:41.368Z,100978.34
2023-03-15T10:04:34.860Z,100986.94
2023-03-15T10:07:04.263Z,100990.22
2023-03-15T10:09:33.640Z,100994.88
2023-03-15T10:12:12.486Z,100994.81
2023-03-15T10:15:19.787Z,100987.44
2023-03-15T10:17:59.064Z,100999.47
2023-03-15T10:20:34.488Z,100996.13
2023-03-15T10:23:17.974Z,100988.63
2023-03-15T10:25:46.782Z,101001.56
2023-03-15T10:28:34.774Z,101009.78
2023-03-15T10:31:22.180Z,101007.97
2023-03-15T10:33:57.741Z,101006.09
2023-03-15T10:36:27.122Z,101006.09
2023-03-15T10:38:55.420Z,101001.69
2023-03-15T10:41:43.665Z,101002.72
2023-03-15T10:44:25.192Z,101000.81
2023-03-15T10:47:23.437Z,101008.56
2023-03-15T10:49:58.686Z,101005.84
2023-03-15T10:52:39.673Z,101009.41
2023-03-15T10:55:15.950Z,101007.88
2023-03-15T10:58:02.447Z,100990.31
2023-03-15T11:00:35.769Z,100993.00
2023-03-15T11:03:22.411Z,100990.66
2023-03-15T11:05:53.270Z,100984.28
2023-03-15T11:08:36.321Z,100991.53
2023-03-15T11:11:04.232Z,100994.28
2023-03-15T11:13:37.812Z,100996.16
2023-03-15T11:16:22.153Z,100997.63
2023-03-15T11:19:01.603Z,100993.91
2023-03-15T11:21:33.561Z,100999.84
2023-03-15T11:24:03.453Z,100992.47
2023-03-15T11:26:38.259Z,101003.66
2023-03-15T11:29:28.853Z,101004.84
2023-03-15T11:31:59.192Z,101003.63
2023-03-15T11:35:02.961Z,101010.56
2023-03-15T11:37:58.539Z,101013.75
2023-03-15T11:40:36.814Z,101000.44
2023-03-15T11:43:11.561Z,100997.94
2023-03-15T11:46:23.133Z,100990.13
2023-03-15T11:49:04.875Z,100990.91
2023-03-15T11:51:35.403Z,100991.19
2023-03-15T11:54:15.154Z,100995.44
2023-03-15T11:56:58.404Z,100998.69
2023-03-15T11:59:32.644Z,100997.09
2023-03-15T12:02:10.952Z,100986.03
2023-03-15T12:04:44.066Z,100988.13
2023-03-15T12:07:19.935Z,100996.56
2023-03-15T12:10:19.137Z,100983.41
2023-03-15T12:12:49.134Z,100980.75
2023-03-15T12:15:19.278Z,100983.06
2023-03-15T12:18:00.741Z,100990.97
2023-03-15T12:20:34.557Z,100993.09
2023-03-15T12:23:20.619Z,100993.34
2023-03-15T12:25:56.580Z,100993.50
2023-03-15T12:28:41.721Z,100995.88
2023-03-15T12:31:13.261Z,100985.81
2023-03-15T12:33:58.393Z,100990.88
2023-03-15T12:36:42.134Z,100995.69
2023-03-15T12:39:15.584Z,100997.44
2023-03-15T12:41:47.235Z,101004.41
2023-03-15T12:44:32.542Z,101001.53
2023-03-15T12:47:05.976Z,100995.69
2023-03-15T12:49:45.257Z,101004.84
2023-03-15T12:52:12.131Z,100993.50
2023-03-15T12:55:04.342Z,101006.56
2023-03-15T12:57:39.923Z,101003.41
2023-03-15T13:00:20.459Z,101003.31
2023-03-15T13:03:02.548Z,101007.03
2023-03-15T13:06:04.233Z,101010.09
2023-03-15T13:08:59.486Z,101010.72
2023-03-15T13:11:57.721Z,101005.25
2023-03-15T13:14:46.614Z,101009.47
2023-03-15T13:17:41.885Z,101019.25
2023-03-15T13:20:13.636Z,101011.13
2023-03-15T13:23:06.990Z,101007.78
2023-03-15T13:26:09.391Z,101008.59
2023-03-15T13:28:42.284Z,101003.28
2023-03-15T13:31:29.944Z,101000.94
2023-03-15T13:34:12.831Z,101001.06
2023-03-15T13:36:48.256Z,101002.44
2023-03-15T13:39:20.578Z,101006.81
2023-03-15T13:41:47.751Z,100996.69
2023-03-15T13:44:23.569Z,101009.75
2023-03-15T13:46:52.408Z,100993.59
2023-03-15T13:49:21.301Z,100994.56
2023-03-15T13:51:51.545Z,100996.50
2023-03-15T13:54:32.725Z,101009.66
2023-03-15T13:57:16.896Z,101003.50
2023-03-15T14:00:11.947Z,101023.53
2023-03-15T14:02:48.988Z,101034.16
2023-03-15T14:05:27.330Z,101070.53
2023-03-15T14:08:07.404Z,101084.84
2023-03-15T14:10:39.231Z,101095.44
2023-03-15T14:13:28.028Z,101082.31
2023-03-15T14:15:59.635Z,101082.97
2023-03-15T14:18:36.039Z,101088.06
2023-03-15T14:21:31.306Z,101080.09
2023-03-15T14:24:06.795Z,101079.31
2023-03-15T14:26:36.240Z,101084.63
2023-03-15T14:29:34.651Z,101075.00
2023-03-15T14:32:12.921Z,101073.84
2023-03-15T14:34:48.106Z,101070.50
2023-03-15T14:37:45.868Z,101057.72
2023-03-15T14:40:38.473Z,101059.56
2023-03-15T14:43:08.369Z,101060.00
2023-03-15T14:45:39.077Z,101056.56
2023-03-15T14:48:14.984Z,101052.63
2023-03-15T14:50:45.927Z,101041.59
2023-03-15T14:53:21.545Z,101047.97
2023-03-15T14:55:48.649Z,101045.31
2023-03-15T14:58:21.457Z,101039.41
2023-03-15T15:00:54.504Z,101042.00
2023-03-15T15:03:42.313Z,101052.16
2023-03-15T15:06:14.143Z,101052.16
2023-03-15T15:08:46.957Z,101048.19
2023-03-15T15:11:14.836Z,101051.50
2023-03-15T15:13:42.391Z,101053.81
2023-03-15T15:16:09.562Z,101046.34
2023-03-15T15:18:37.315Z,101056.56
2023-03-15T15:21:24.737Z,101045.47
2023-03-15T15:23:58.593Z,101060.34
2023-03-15T15:26:29.726Z,101056.22
2023-03-15T15:28:57.439Z,101076.69
2023-03-15T15:31:27.600Z,101070.56
2023-03-15T15:33:56.626Z,101062.84
2023-03-15T15:36:50.067Z,101079.84
2023-03-15T15:39:27.676Z,101076.13
2023-03-15T15:41:54.619Z,101079.25
2023-03-15T15:44:25.698Z,101085.84
2023-03-15T15:46:53.061Z,101077.38
2023-03-15T15:49:21.054Z,101082.59
2023-03-15T15:51:49.821Z,101080.38
2023-03-15T15:54:30.599Z,101094.28
2023-03-15T15:57:01.359Z,101094.25
2023-03-15T15:59:28.569Z,101095.72
2023-03-15T16:02:01.275Z,101113.56
2023-03-15T16:04:29.861Z,101104.63
2023-03-15T16:07:02.474Z,101114.16
2023-03-15T16:09:33.213Z,101117.81
2023-03-15T16:12:00.232Z,101114.19
2023-03-15T16:14:27.246Z,101129.97
2023-03-15T16:16:54.148Z,101128.44
2023-03-15T16:19:21.174Z,101128.50
2023-03-15T16:21:50.809Z,101139.84
2023-03-15T16:24:23.616Z,101144.38
2023-03-15T16:26:51.035Z,101188.13
2023-03-15T16:29:21.777Z,101207.16
2023-03-15T16:31:51.061Z,101207.28
2023-03-15T16:34:20.010Z,101221.31
2023-03-15T16:36:49.778Z,101221.88
2023-03-15T16:39:17.440Z,101233.88
2023-03-15T16:41:44.506Z,101213.75
2023-03-15T16:44:17.566Z,101221.59
2023-03-15T16:46:45.312Z,101213.63
2023-03-15T16:49:15.362Z,101203.00
2023-03-15T16:51:47.984Z,101215.38
2023-03-15T16:54:24.546Z,101214.19
2023-03-15T16:56:57.922Z,101212.84
2023-03-15T16:59:24.920Z,101212.69
2023-03-15T17:01:51.897Z,101220.13
2023-03-15T17:04:19.326Z,101222.59
2023-03-15T17:06:46.773Z,101237.59
2023-03-15T17:09:22.759Z,101246.03
2023-03-15T17:11:55.887Z,101253.41
2023-03-15T17:14:30.110Z,101263.47
2023-03-15T17:16:57.399Z,101267.50
2023-03-15T17:19:24.875Z,101273.66
2023-03-15T17:21:53.170Z,101264.19
2023-03-15T17:24:20.159Z,101272.53
2023-03-15T17:26:47.287Z,101284.78
2023-03-15T17:29:15.963Z,101293.97
2023-03-15T17:31:44.494Z,101290.84
2023-03-15T17:34:11.645Z,101293.25
2023-03-15T17:36:38.710Z,101292.97
2023-03-15T17:39:14.765Z,101291.09
2023-03-15T17:41:46.499Z,101299.44
2023-03-15T17:44:13.698Z,101306.75
2023-03-15T17:46:40.723Z,101295.03
2023-03-15T17:49:09.004Z,101297.25
2023-03-15T17:51:37.416Z,101312.13
2023-03-15T17:54:14.404Z,101310.25
2023-03-15T17:56:41.512Z,101304.66
2023-03-15T17:59:12.009Z,101312.81
2023-03-15T18:01:43.337Z,101314.00
2023-03-15T18:04:13.122Z,101325.03
2023-03-15T18:06:40.528Z,101320.81
2023-03-15T18:09:15.434Z,101330.47
2023-03-15T18:11:43.896Z,101329.75
2023-03-15T18:14:15.652Z,101338.53
2023-03-15T18:16:43.523Z,101331.16
2023-03-15T18:19:10.637Z,101328.44
2023-03-15T18:21:37.574Z,101345.19
2023-03-15T18:24:04.867Z,101342.72
2023-03-15T18:26:31.883Z,101333.69
2023-03-15T18:28:58.851Z,101351.06
2023-03-15T18:31:26.374Z,101354.47
2023-03-15T18:33:53.881Z,101356.69
2023-03-15T18:36:20.928Z,101358.50
2023-03-15T18:38:48.818Z,101363.19
2023-03-15T18:41:23.458Z,101366.84
2023-03-15T18:43:51.499Z,101363.75
2023-03-15T18:46:21.366Z,101371.91
2023-03-15T18:48:50.206Z,101365.97
2023-03-15T18:51:17.512Z,101375.13
2023-03-15T18:53:45.751Z,101369.38
2023-03-15T18:56:34.346Z,101375.31
2023-03-15T18:59:02.909Z,101379.16
2023-03-15T19:01:30.036Z,101397.28
2023-03-15T19:03:57.169Z,101405.25
2023-03-15T19:06:24.269Z,101382.09
2023-03-15T19:08:54.116Z,101393.34
2023-03-15T19:11:24.395Z,101394.34
2023-03-15T19:13:51.792Z,101394.56
2023-03-15T19:16:22.993Z,101398.41
2023-03-15T19:18:51.994Z,101386.06
2023-03-15T19:21:20.244Z,101399.78
2023-03-15T19:23:48.308Z,101396.50
2023-03-15T19:26:15.471Z,101403.00
2023-03-15T19:28:42.707Z,101411.94
2023-03-15T19:31:11.364Z,101408.84
2023-03-15T19:33:38.732Z,101410.69
2023-03-15T19:36:06.178Z,101414.88
2023-03-15T19:38:33.358Z,101407.13
2023-03-15T19:41:10.734Z,101415.91
2023-03-15T19:43:42.259Z,101415.44
2023-03-15T19:46:10.474Z,101432.88
2023-03-15T19:48:37.413Z,101438.19
2023-03-15T19:51:04.772Z,101430.41
2023-03-15T19:53:32.464Z,101440.75
2023-03-15T19:56:04.546Z,101435.25
2023-03-15T19:58:31.945Z,101444.56
2023-03-15T20:00:59.136Z,101452.72
2023-03-15T20:03:26.198Z,101454.34
2023-03-15T20:05:53.174Z,101447.47
2023-03-15T20:08:20.230Z,101457.88
2023-03-15T20:10:48.560Z,101460.72
2023-03-15T20:13:16.294Z,101457.44
2023-03-15T20:15:43.361Z,101455.31
2023-03-15T20:18:12.954Z,101468.56
2023-03-15T20:20:40.128Z,101465.09
2023-03-15T20:23:07.305Z,101473.22
2023-03-15T20:25:34.558Z,101470.94
2023-03-15T20:28:04.175Z,101469.28
2023-03-15T20:30:31.264Z,101473.13
2023-03-15T20:32:58.427Z,101473.31
2023-03-15T20:35:25.624Z,101476.31
2023-03-15T20:37:53.495Z,101476.31
2023-03-15T20:40:21.032Z,101475.84
2023-03-15T20:42:48.378Z,101479.69
2023-03-15T20:45:15.445Z,101484.34
2023-03-15T20:47:42.689Z,101485.53
2023-03-15T20:50:11.417Z,101485.88
2023-03-15T20:52:38.866Z,101489.53
2023-03-15T20:55:07.764Z,101486.97
2023-03-15T20:57:36.480Z,101491.44
2023-03-15T21:00:12.214Z,101479.91
2023-03-15T21:02:41.278Z,101492.97
2023-03-15T21:05:10.446Z,101494.97
2023-03-15T21:07:37.518Z,101504.28
2023-03-15T21:10:05.379Z,101495.41
2023-03-15T21:12:33.034Z,101498.50
2023-03-15T21:14:59.965Z,101505.16
2023-03-15T21:17:26.894Z,101507.94
2023-03-15T21:19:54.122Z,101508.47
2023-03-15T21:22:21.216Z,101523.53
2023-03-15T21:24:55.525Z,101503.91
2023-03-15T21:27:25.996Z,101509.25
2023-03-15T21:29:53.501Z,101511.88
2023-03-15T21:32:20.937Z,101519.66
2023-03-15T21:34:48.025Z,101515.38
2023-03-15T21:37:15.072Z,101526.31
2023-03-15T21:39:42.001Z,101524.81
2023-03-15T21:42:09.064Z,101533.78
2023-03-15T21:44:37.342Z,101517.06
2023-03-15T21:47:05.144Z,101535.59
2023-03-15T21:49:32.716Z,101530.00
2023-03-15T21:52:00.185Z,101526.34
2023-03-15T21:54:27.104Z,101527.53
2023-03-15T21:56:53.979Z,101531.16
2023-03-15T21:59:27.867Z,101530.69
2023-03-15T22:01:55.991Z,101535.16
2023-03-15T22:04:27.172Z,101527.75
2023-03-15T22:06:54.461Z,101537.69
2023-03-15T22:09:23.207Z,101539.97
2023-03-15T22:11:51.006Z,101541.81
2023-03-15T22:14:18.518Z,101546.44
2023-03-15T22:16:45.720Z,101545.13
2023-03-15T22:19:14.337Z,101534.91
2023-03-15T22:21:42.182Z,101556.72
2023-03-15T22:24:09.696Z,101553.78
2023-03-15T22:26:36.853Z,101553.78
2023-03-15T22:29:03.844Z,101554.13
2023-03-15T22:31:31.798Z,101557.94
2023-03-15T22:33:58.804Z,101564.03
2023-03-15T22:36:26.106Z,101556.16
2023-03-15T22:38:53.024Z,101558.78
2023-03-15T22:41:20.280Z,101564.06
2023-03-15T22:43:47.381Z,101574.66
2023-03-15T22:46:14.400Z,101578.47
2023-03-15T22:48:41.496Z,101590.22
2023-03-15T22:51:15.596Z,101587.75
2023-03-15T22:53:43.179Z,101585.44
2023-03-15T22:56:10.360Z,101583.97
2023-03-15T22:58:37.918Z,101571.72
2023-03-15T23:01:05.323Z,101585.94
2023-03-15T23:03:32.998Z,101588.75
2023-03-15T23:06:00.256Z,101582.00
2023-03-15T23:08:27.565Z,101587.28
2023-03-15T23:10:58.208Z,101602.16
2023-03-15T23:13:25.431Z,101601.34
2023-03-15T23:15:52.590Z,101593.88
2023-03-15T23:18:19.892Z,101599.00
2023-03-15T23:20:46.814Z,101595.53
2023-03-15T23:23:14.046Z,101607.75
2023-03-15T23:25:41.086Z,101602.81
2023-03-15T23:28:08.189Z,101598.50
2023-03-15T23:30:36.417Z,101606.44
2023-03-15T23:33:04.064Z,101600.66
2023-03-15T23:35:31.953Z,101604.47
2023-03-15T23:37:59.195Z,101605.81
2023-03-15T23:40:27.484Z,101612.41
2023-03-15T23:42:58.951Z,101610.91
2023-03-15T23:45:29.454Z,101607.63
2023-03-15T23:47:57.293Z,101615.06
2023-03-15T23:50:26.516Z,101603.16
2023-03-15T23:52:56.014Z,101613.09
2023-03-15T23:55:24.441Z,101622.34
2023-03-15T23:57:51.629Z,101618.22
